sensor_id;sensor_type;location;lat;lon;timestamp;pressure;altitude;pressure_sealevel;temperature;humidity
64889;BME280;51386;53.082;8.816;2023-05-25T00:01:04;102461.56;;;17.52;50.34
64889;BME280;51386;53.082;8.816;2023-05-25T00:03:31;102458.09;;;17.51;50.39
64889;BME280;51386;53.082;8.816;2023-05-25T00:05:58;102472.38;;;17.50;50.48
64889;BME280;51386;53.082;8.816;2023-05-25T00:08:28;102471.22;;;17.53;50.58
64889;BME280;51386;53.082;8.816;2023-05-25T00:10:55;102470.88;;;17.56;50.45
64889;BME280;51386;53.082;8.816;2023-05-25T00:13:22;102475.66;;;17.61;50.61
64889;BME280;51386;53.082;8.816;2023-05-25T00:15:50;102483.31;;;17.64;50.47
64889;BME280;51386;53.082;8.816;2023-05-25T00:18:17;102474.31;;;17.65;50.38
64889;BME280;51386;53.082;8.816;2023-05-25T00:20:44;102473.94;;;17.68;50.59
64889;BME280;51386;53.082;8.816;2023-05-25T00:23:13;102474.41;;;17.71;50.60
64889;BME280;51386;53.082;8.816;2023-05-25T00:25:40;102472.03;;;17.76;50.51
64889;BME280;51386;53.082;8.816;2023-05-25T00:28:07;102476.84;;;17.81;50.28
64889;BME280;51386;53.082;8.816;2023-05-25T00:30:34;102476.13;;;17.87;50.28
64889;BME280;51386;53.082;8.816;2023-05-25T00:33:03;102478.06;;;17.93;50.21
64889;BME280;51386;53.082;8.816;2023-05-25T00:35:30;102472.38;;;17.96;50.29
64889;BME280;51386;53.082;8.816;2023-05-25T00:37:57;102473.66;;;18.00;50.10
64889;BME280;51386;53.082;8.816;2023-05-25T00:40:24;102475.34;;;18.01;50.00
64889;BME280;51386;53.082;8.816;2023-05-25T00:42:51;102470.84;;;18.01;49.83
64889;BME280;51386;53.082;8.816;2023-05-25T00:45:19;102466.31;;;18.02;49.91
64889;BME280;51386;53.082;8.816;2023-05-25T00:47:50;102460.19;;;18.01;49.79
64889;BME280;51386;53.082;8.816;2023-05-25T00:50:32;102465.13;;;18.04;49.85
64889;BME280;51386;53.082;8.816;2023-05-25T00:53:02;102459.44;;;18.07;49.81
64889;BME280;51386;53.082;8.816;2023-05-25T00:55:35;102457.97;;;18.05;49.78
64889;BME280;51386;53.082;8.816;2023-05-25T00:58:06;102459.00;;;18.04;49.88
64889;BME280;51386;53.082;8.816;2023-05-25T01:00:34;102456.34;;;18.04;49.78
64889;BME280;51386;53.082;8.816;2023-05-25T01:03:11;102464.69;;;18.01;49.98
64889;BME280;51386;53.082;8.816;2023-05-25T01:05:41;102448.88;;;17.99;50.11
64889;BME280;51386;53.082;8.816;2023-05-25T01:08:13;102451.53;;;17.99;50.09
64889;BME280;51386;53.082;8.816;2023-05-25T01:10:47;102454.84;;;18.01;50.21
64889;BME280;51386;53.082;8.816;2023-05-25T01:13:17;102449.81;;;18.06;50.06
64889;BME280;51386;53.082;8.816;2023-05-25T01:15:46;102452.94;;;18.10;50.07
64889;BME280;51386;53.082;8.816;2023-05-25T01:18:14;102457.91;;;18.13;50.03
64889;BME280;51386;53.082;8.816;2023-05-25T01:20:56;102452.03;;;18.17;50.05
64889;BME280;51386;53.082;8.816;2023-05-25T01:23:32;102460.13;;;18.24;49.80
64889;BME280;51386;53.082;8.816;2023-05-25T01:26:04;102456.91;;;18.28;49.71
64889;BME280;51386;53.082;8.816;2023-05-25T01:28:38;102452.69;;;18.34;49.64
64889;BME280;51386;53.082;8.816;2023-05-25T01:31:07;102463.44;;;18.41;49.54
64889;BME280;51386;53.082;8.816;2023-05-25T01:33:35;102464.91;;;18.43;49.48
64889;BME280;51386;53.082;8.816;2023-05-25T01:36:04;102468.41;;;18.44;49.34
64889;BME280;51386;53.082;8.816;2023-05-25T01:38:32;102464.06;;;18.43;49.42
64889;BME280;51386;53.082;8.816;2023-05-25T01:40:59;102464.06;;;18.43;49.62
64889;BME280;51386;53.082;8.816;2023-05-25T01:43:26;102460.13;;;18.39;49.34
64889;BME280;51386;53.082;8.816;2023-05-25T01:46:01;102466.00;;;18.34;49.29
64889;BME280;51386;53.082;8.816;2023-05-25T01:48:42;102464.25;;;18.26;49.42
64889;BME280;51386;53.082;8.816;2023-05-25T01:51:21;102467.66;;;18.20;49.69
64889;BME280;51386;53.082;8.816;2023-05-25T01:53:57;102473.53;;;18.16;49.79
64889;BME280;51386;53.082;8.816;2023-05-25T01:56:27;102473.91;;;18.13;50.05
64889;BME280;51386;53.082;8.816;2023-05-25T01:59:00;102477.09;;;18.08;50.08
64889;BME280;51386;53.082;8.816;2023-05-25T02:01:28;102473.97;;;18.05;50.16
64889;BME280;51386;53.082;8.816;2023-05-25T02:03:57;102486.00;;;18.01;50.36
64889;BME280;51386;53.082;8.816;2023-05-25T02:06:26;102474.22;;;17.95;50.58
64889;BME280;51386;53.082;8.816;2023-05-25T02:08:53;102475.78;;;17.90;50.62
64889;BME280;51386;53.082;8.816;2023-05-25T02:11:20;102481.28;;;17.88;50.98
64889;BME280;51386;53.082;8.816;2023-05-25T02:13:47;102484.13;;;17.87;51.06
64889;BME280;51386;53.082;8.816;2023-05-25T02:16:14;102483.28;;;17.86;51.07
64889;BME280;51386;53.082;8.816;2023-05-25T02:18:41;102468.69;;;17.82;51.07
64889;BME280;51386;53.082;8.816;2023-05-25T02:21:11;102470.84;;;17.79;51.17
64889;BME280;51386;53.082;8.816;2023-05-25T02:23:39;102474.53;;;17.78;51.15
64889;BME280;51386;53.082;8.816;2023-05-25T02:26:06;102469.56;;;17.75;51.37
64889;BME280;51386;53.082;8.816;2023-05-25T02:28:33;102467.59;;;17.69;51.10
64889;BME280;51386;53.082;8.816;2023-05-25T02:31:00;102470.66;;;17.66;51.21
64889;BME280;51386;53.082;8.816;2023-05-25T02:33:27;102469.69;;;17.58;51.46
64889;BME280;51386;53.082;8.816;2023-05-25T02:35:54;102474.88;;;17.52;51.55
64889;BME280;51386;53.082;8.816;2023-05-25T02:38:21;102467.41;;;17.47;51.57
64889;BME280;51386;53.082;8.816;2023-05-25T02:40:50;102476.75;;;17.43;51.75
64889;BME280;51386;53.082;8.816;2023-05-25T02:43:17;102475.09;;;17.42;52.18
64889;BME280;51386;53.082;8.816;2023-05-25T02:45:43;102473.09;;;17.44;52.19
64889;BME280;51386;53.082;8.816;2023-05-25T02:48:11;102475.75;;;17.44;51.82
64889;BME280;51386;53.082;8.816;2023-05-25T02:50:38;102478.75;;;17.41;52.38
64889;BME280;51386;53.082;8.816;2023-05-25T02:53:05;102470.47;;;17.36;52.00
64889;BME280;51386;53.082;8.816;2023-05-25T02:55:31;102474.50;;;17.32;52.34
64889;BME280;51386;53.082;8.816;2023-05-25T02:58:00;102479.34;;;17.29;52.54
64889;BME280;51386;53.082;8.816;2023-05-25T03:00:27;102468.22;;;17.25;52.51
64889;BME280;51386;53.082;8.816;2023-05-25T03:02:54;102477.19;;;17.24;52.41
64889;BME280;51386;53.082;8.816;2023-05-25T03:05:21;102477.53;;;17.21;52.68
64889;BME280;51386;53.082;8.816;2023-05-25T03:07:48;102472.59;;;17.18;52.41
64889;BME280;51386;53.082;8.816;2023-05-25T03:10:15;102484.22;;;17.17;52.89
64889;BME280;51386;53.082;8.816;2023-05-25T03:12:42;102485.06;;;17.18;53.03
64889;BME280;51386;53.082;8.816;2023-05-25T03:15:10;102494.03;;;17.17;53.17
64889;BME280;51386;53.082;8.816;2023-05-25T03:17:39;102485.25;;;17.16;53.05
64889;BME280;51386;53.082;8.816;2023-05-25T03:20:08;102489.56;;;17.17;53.43
64889;BME280;51386;53.082;8.816;2023-05-25T03:22:36;102495.06;;;17.16;53.16
64889;BME280;51386;53.082;8.816;2023-05-25T03:25:04;102494.69;;;17.19;53.43
64889;BME280;51386;53.082;8.816;2023-05-25T03:27:31;102502.53;;;17.20;53.45
64889;BME280;51386;53.082;8.816;2023-05-25T03:29:58;102506.16;;;17.19;53.20
64889;BME280;51386;53.082;8.816;2023-05-25T03:32:26;102511.19;;;17.14;53.39
64889;BME280;51386;53.082;8.816;2023-05-25T03:34:53;102509.22;;;17.08;53.59
64889;BME280;51386;53.082;8.816;2023-05-25T03:37:20;102513.25;;;17.04;53.63
64889;BME280;51386;53.082;8.816;2023-05-25T03:39:47;102501.28;;;17.00;53.92
64889;BME280;51386;53.082;8.816;2023-05-25T03:42:14;102504.13;;;16.99;53.92
64889;BME280;51386;53.082;8.816;2023-05-25T03:44:41;102515.94;;;16.96;53.73
64889;BME280;51386;53.082;8.816;2023-05-25T03:47:08;102507.44;;;16.92;53.85
64889;BME280;51386;53.082;8.816;2023-05-25T03:49:36;102513.28;;;16.88;54.16
64889;BME280;51386;53.082;8.816;2023-05-25T03:52:04;102513.66;;;16.85;54.15
64889;BME280;51386;53.082;8.816;2023-05-25T03:54:31;102509.50;;;16.82;54.53
64889;BME280;51386;53.082;8.816;2023-05-25T03:56:58;102516.66;;;16.82;54.63
64889;BME280;51386;53.082;8.816;2023-05-25T03:59:26;102517.63;;;16.81;54.67
64889;BME280;51386;53.082;8.816;2023-05-25T04:01:53;102514.81;;;16.82;54.71
64889;BME280;51386;53.082;8.816;2023-05-25T04:04:20;102524.94;;;16.87;54.99
64889;BME280;51386;53.082;8.816;2023-05-25T04:06:49;102515.63;;;16.91;54.73
64889;BME280;51386;53.082;8.816;2023-05-25T04:09:17;102516.13;;;16.95;54.75
64889;BME280;51386;53.082;8.816;2023-05-25T04:11:45;102522.94;;;16.97;55.20
64889;BME280;51386;53.082;8.816;2023-05-25T04:14:12;102522.22;;;17.03;54.94
64889;BME280;51386;53.082;8.816;2023-05-25T04:16:39;102525.53;;;17.05;54.77
64889;BME280;51386;53.082;8.816;2023-05-25T04:19:07;102525.72;;;17.04;54.62
64889;BME280;51386;53.082;8.816;2023-05-25T04:21:34;102525.88;;;17.02;54.56
64889;BME280;51386;53.082;8.816;2023-05-25T04:24:03;102527.53;;;17.03;54.49
64889;BME280;51386;53.082;8.816;2023-05-25T04:26:30;102533.69;;;17.04;54.62
64889;BME280;51386;53.082;8.816;2023-05-25T04:28:57;102529.22;;;17.04;54.65
64889;BME280;51386;53.082;8.816;2023-05-25T04:31:24;102525.53;;;17.05;54.49
64889;BME280;51386;53.082;8.816;2023-05-25T04:33:53;102518.56;;;17.04;54.51
64889;BME280;51386;53.082;8.816;2023-05-25T04:36:22;102523.06;;;17.04;54.61
64889;BME280;51386;53.082;8.816;2023-05-25T04:38:49;102525.53;;;17.05;54.60
64889;BME280;51386;53.082;8.816;2023-05-25T04:41:19;102531.50;;;17.07;54.81
64889;BME280;51386;53.082;8.816;2023-05-25T04:43:46;102534.81;;;17.09;54.85
64889;BME280;51386;53.082;8.816;2023-05-25T04:46:33;102536.50;;;17.10;54.79
64889;BME280;51386;53.082;8.816;2023-05-25T04:49:03;102532.84;;;17.11;54.66
64889;BME280;51386;53.082;8.816;2023-05-25T04:51:31;102529.81;;;17.14;54.57
64889;BME280;51386;53.082;8.816;2023-05-25T04:53:58;102536.47;;;17.18;54.94
64889;BME280;51386;53.082;8.816;2023-05-25T04:56:26;102535.56;;;17.26;55.12
64889;BME280;51386;53.082;8.816;2023-05-25T04:58:53;102536.72;;;17.31;54.88
64889;BME280;51386;53.082;8.816;2023-05-25T05:01:20;102539.69;;;17.36;54.60
64889;BME280;51386;53.082;8.816;2023-05-25T05:03:47;102536.31;;;17.42;54.37
64889;BME280;51386;53.082;8.816;2023-05-25T05:06:14;102532.31;;;17.46;54.40
64889;BME280;51386;53.082;8.816;2023-05-25T05:08:42;102544.28;;;17.50;54.21
64889;BME280;51386;53.082;8.816;2023-05-25T05:11:09;102548.09;;;17.56;54.18
64889;BME280;51386;53.082;8.816;2023-05-25T05:13:37;102553.56;;;17.63;54.10
64889;BME280;51386;53.082;8.816;2023-05-25T05:16:05;102553.03;;;17.67;53.75
64889;BME280;51386;53.082;8.816;2023-05-25T05:18:32;102561.66;;;17.69;53.57
64889;BME280;51386;53.082;8.816;2023-05-25T05:20:59;102565.47;;;17.75;53.19
64889;BME280;51386;53.082;8.816;2023-05-25T05:23:26;102566.59;;;17.80;53.32
64889;BME280;51386;53.082;8.816;2023-05-25T05:25:53;102564.06;;;17.87;52.81
64889;BME280;51386;53.082;8.816;2023-05-25T05:28:20;102566.19;;;17.91;52.66
64889;BME280;51386;53.082;8.816;2023-05-25T05:30:48;102562.63;;;17.99;52.73
64889;BME280;51386;53.082;8.816;2023-05-25T05:33:15;102563.56;;;18.06;52.61
64889;BME280;51386;53.082;8.816;2023-05-25T05:35:43;102564.53;;;18.13;52.19
64889;BME280;51386;53.082;8.816;2023-05-25T05:38:10;102568.47;;;18.17;52.07
64889;BME280;51386;53.082;8.816;2023-05-25T05:40:37;102576.41;;;18.25;52.02
64889;BME280;51386;53.082;8.816;2023-05-25T05:43:04;102575.34;;;18.34;52.02
64889;BME280;51386;53.082;8.816;2023-05-25T05:45:32;102572.41;;;18.44;51.99
64889;BME280;51386;53.082;8.816;2023-05-25T05:48:00;102564.84;;;18.55;51.84
64889;BME280;51386;53.082;8.816;2023-05-25T05:50:27;102573.41;;;18.65;51.40
64889;BME280;51386;53.082;8.816;2023-05-25T05:52:54;102573.69;;;18.70;51.21
64889;BME280;51386;53.082;8.816;2023-05-25T05:55:22;102573.50;;;18.72;51.11
64889;BME280;51386;53.082;8.816;2023-05-25T05:57:48;102581.31;;;18.73;50.92
64889;BME280;51386;53.082;8.816;2023-05-25T06:00:17;102582.63;;;18.77;50.76
64889;BME280;51386;53.082;8.816;2023-05-25T06:02:44;102573.41;;;18.80;50.79
64889;BME280;51386;53.082;8.816;2023-05-25T06:05:12;102583.72;;;18.83;50.39
64889;BME280;51386;53.082;8.816;2023-05-25T06:07:39;102577.19;;;18.85;50.20
64889;BME280;51386;53.082;8.816;2023-05-25T06:10:08;102585.03;;;18.87;50.14
64889;BME280;51386;53.082;8.816;2023-05-25T06:12:35;102589.16;;;18.89;49.97
64889;BME280;51386;53.082;8.816;2023-05-25T06:15:03;102585.75;;;18.96;49.89
64889;BME280;51386;53.082;8.816;2023-05-25T06:17:32;102592.19;;;19.01;49.33
64889;BME280;51386;53.082;8.816;2023-05-25T06:19:59;102592.63;;;19.05;49.43
64889;BME280;51386;53.082;8.816;2023-05-25T06:22:27;102596.63;;;19.09;49.36
64889;BME280;51386;53.082;8.816;2023-05-25T06:24:54;102588.22;;;19.12;49.12
64889;BME280;51386;53.082;8.816;2023-05-25T06:27:21;102600.84;;;19.18;48.87
64889;BME280;51386;53.082;8.816;2023-05-25T06:29:49;102595.78;;;19.23;49.21
64889;BME280;51386;53.082;8.816;2023-05-25T06:32:16;102609.41;;;19.28;48.80
64889;BME280;51386;53.082;8.816;2023-05-25T06:34:43;102607.38;;;19.30;48.69
64889;BME280;51386;53.082;8.816;2023-05-25T06:37:10;102611.88;;;19.29;48.20
64889;BME280;51386;53.082;8.816;2023-05-25T06:39:38;102610.22;;;19.28;48.51
64889;BME280;51386;53.082;8.816;2023-05-25T06:42:06;102613.06;;;19.27;48.55
64889;BME280;51386;53.082;8.816;2023-05-25T06:44:33;102615.38;;;19.30;48.28
64889;BME280;51386;53.082;8.816;2023-05-25T06:47:00;102618.88;;;19.30;48.17
64889;BME280;51386;53.082;8.816;2023-05-25T06:49:29;102616.66;;;19.34;48.16
64889;BME280;51386;53.082;8.816;2023-05-25T06:51:56;102621.00;;;19.35;47.83
64889;BME280;51386;53.082;8.816;2023-05-25T06:54:23;102628.00;;;19.36;48.00
64889;BME280;51386;53.082;8.816;2023-05-25T06:56:51;102625.16;;;19.37;47.78
64889;BME280;51386;53.082;8.816;2023-05-25T06:59:18;102627.66;;;19.39;47.65
64889;BME280;51386;53.082;8.816;2023-05-25T07:01:45;102632.44;;;19.43;47.32
64889;BME280;51386;53.082;8.816;2023-05-25T07:04:13;102633.53;;;19.49;47.56
64889;BME280;51386;53.082;8.816;2023-05-25T07:06:40;102640.16;;;19.53;47.32
64889;BME280;51386;53.082;8.816;2023-05-25T07:09:07;102637.28;;;19.54;46.98
64889;BME280;51386;53.082;8.816;2023-05-25T07:11:34;102636.09;;;19.57;46.49
64889;BME280;51386;53.082;8.816;2023-05-25T07:14:02;102644.38;;;19.62;46.63
64889;BME280;51386;53.082;8.816;2023-05-25T07:16:29;102645.00;;;19.64;46.06
64889;BME280;51386;53.082;8.816;2023-05-25T07:18:57;102643.66;;;19.68;46.18
64889;BME280;51386;53.082;8.816;2023-05-25T07:21:26;102642.53;;;19.77;46.30
64889;BME280;51386;53.082;8.816;2023-05-25T07:23:53;102648.38;;;19.87;46.00
64889;BME280;51386;53.082;8.816;2023-05-25T07:26:20;102647.53;;;20.01;45.50
64889;BME280;51386;53.082;8.816;2023-05-25T07:28:49;102649.19;;;20.23;45.40
64889;BME280;51386;53.082;8.816;2023-05-25T07:31:17;102650.31;;;20.57;44.78
64889;BME280;51386;53.082;8.816;2023-05-25T07:33:44;102649.91;;;20.81;44.04
64889;BME280;51386;53.082;8.816;2023-05-25T07:36:11;102646.50;;;20.93;43.85
64889;BME280;51386;53.082;8.816;2023-05-25T07:38:38;102646.94;;;20.97;42.87
64889;BME280;51386;53.082;8.816;2023-05-25T07:41:05;102655.53;;;20.92;42.28
64889;BME280;51386;53.082;8.816;2023-05-25T07:43:33;102650.16;;;20.86;42.59
64889;BME280;51386;53.082;8.816;2023-05-25T07:46:00;102656.50;;;20.85;42.22
64889;BME280;51386;53.082;8.816;2023-05-25T07:48:33;102660.03;;;20.85;42.38
64889;BME280;51386;53.082;8.816;2023-05-25T07:50:59;102659.84;;;20.87;42.19
64889;BME280;51386;53.082;8.816;2023-05-25T07:53:27;102665.03;;;20.95;42.28
64889;BME280;51386;53.082;8.816;2023-05-25T07:55:54;102664.28;;;21.01;41.96
64889;BME280;51386;53.082;8.816;2023-05-25T07:58:21;102653.16;;;21.04;40.98
64889;BME280;51386;53.082;8.816;2023-05-25T08:00:48;102660.56;;;21.02;41.11
64889;BME280;51386;53.082;8.816;2023-05-25T08:03:16;102660.56;;;21.02;41.35
64889;BME280;51386;53.082;8.816;2023-05-25T08:05:50;102662.88;;;21.05;41.18
64889;BME280;51386;53.082;8.816;2023-05-25T08:09:12;102663.84;;;21.04;40.50
64889;BME280;51386;53.082;8.816;2023-05-25T08:11:42;102661.94;;;21.19;40.58
64889;BME280;51386;53.082;8.816;2023-05-25T08:14:13;102656.72;;;21.45;40.18
64889;BME280;51386;53.082;8.816;2023-05-25T08:16:41;102661.94;;;22.14;39.86
64889;BME280;51386;53.082;8.816;2023-05-25T08:19:30;102668.59;;;22.97;38.36
64889;BME280;51386;53.082;8.816;2023-05-25T08:22:03;102672.47;;;23.40;37.33
64889;BME280;51386;53.082;8.816;2023-05-25T08:24:32;102668.47;;;23.62;36.36
64889;BME280;51386;53.082;8.816;2023-05-25T08:27:00;102678.41;;;23.55;36.45
64889;BME280;51386;53.082;8.816;2023-05-25T08:29:32;102683.44;;;23.32;36.65
64889;BME280;51386;53.082;8.816;2023-05-25T08:32:07;102685.72;;;23.09;36.86
64889;BME280;51386;53.082;8.816;2023-05-25T08:34:35;102682.28;;;22.82;37.11
64889;BME280;51386;53.082;8.816;2023-05-25T08:37:03;102673.56;;;22.60;37.50
64889;BME280;51386;53.082;8.816;2023-05-25T08:39:30;102682.00;;;22.44;37.31
64889;BME280;51386;53.082;8.816;2023-05-25T08:42:01;102683.00;;;22.30;37.32
64889;BME280;51386;53.082;8.816;2023-05-25T08:44:34;102686.31;;;22.19;37.37
64889;BME280;51386;53.082;8.816;2023-05-25T08:47:07;102680.53;;;22.15;37.49
64889;BME280;51386;53.082;8.816;2023-05-25T08:49:41;102678.50;;;22.50;37.79
64889;BME280;51386;53.082;8.816;2023-05-25T08:52:13;102679.81;;;24.15;36.41
64889;BME280;51386;53.082;8.816;2023-05-25T08:54:43;102672.47;;;25.45;33.91
64889;BME280;51386;53.082;8.816;2023-05-25T08:57:14;102675.31;;;25.80;32.63
64889;BME280;51386;53.082;8.816;2023-05-25T08:59:50;102675.13;;;25.64;32.06
64889;BME280;51386;53.082;8.816;2023-05-25T09:02:25;102670.97;;;25.25;32.23
64889;BME280;51386;53.082;8.816;2023-05-25T09:04:56;102671.47;;;24.79;33.23
64889;BME280;51386;53.082;8.816;2023-05-25T09:07:27;102683.41;;;24.34;33.34
64889;BME280;51386;53.082;8.816;2023-05-25T09:09:55;102681.69;;;24.01;33.63
64889;BME280;51386;53.082;8.816;2023-05-25T09:12:23;102687.41;;;23.80;34.40
64889;BME280;51386;53.082;8.816;2023-05-25T09:14:58;102679.00;;;23.64;34.83
64889;BME280;51386;53.082;8.816;2023-05-25T09:17:26;102689.63;;;23.45;35.01
64889;BME280;51386;53.082;8.816;2023-05-25T09:19:53;102684.84;;;23.47;34.85
64889;BME280;51386;53.082;8.816;2023-05-25T09:22:21;102676.72;;;23.67;34.76
64889;BME280;51386;53.082;8.816;2023-05-25T09:24:50;102686.19;;;23.76;34.93
64889;BME280;51386;53.082;8.816;2023-05-25T09:27:20;102691.78;;;23.75;34.40
64889;BME280;51386;53.082;8.816;2023-05-25T09:29:49;102691.22;;;23.60;34.71
64889;BME280;51386;53.082;8.816;2023-05-25T09:32:18;102694.16;;;23.45;35.03
64889;BME280;51386;53.082;8.816;2023-05-25T09:34:48;102701.41;;;23.38;35.15
64889;BME280;51386;53.082;8.816;2023-05-25T09:37:16;102699.75;;;23.37;35.25
64889;BME280;51386;53.082;8.816;2023-05-25T09:39:46;102700.97;;;23.98;34.83
64889;BME280;51386;53.082;8.816;2023-05-25T09:42:17;102704.63;;;24.73;33.25
64889;BME280;51386;53.082;8.816;2023-05-25T09:44:44;102702.69;;;24.86;32.26
64889;BME280;51386;53.082;8.816;2023-05-25T09:47:12;102712.81;;;24.91;32.97
64889;BME280;51386;53.082;8.816;2023-05-25T09:49:40;102716.75;;;25.13;31.89
64889;BME280;51386;53.082;8.816;2023-05-25T09:52:08;102697.94;;;26.27;31.13
64889;BME280;51386;53.082;8.816;2023-05-25T09:54:35;102696.91;;;26.93;29.69
64889;BME280;51386;53.082;8.816;2023-05-25T09:57:04;102707.72;;;26.93;29.78
64889;BME280;51386;53.082;8.816;2023-05-25T09:59:33;102707.19;;;26.61;29.91
64889;BME280;51386;53.082;8.816;2023-05-25T10:02:00;102707.44;;;26.18;29.99
64889;BME280;51386;53.082;8.816;2023-05-25T10:04:28;102707.56;;;25.75;30.90
64889;BME280;51386;53.082;8.816;2023-05-25T10:06:57;102709.88;;;25.35;31.42
64889;BME280;51386;53.082;8.816;2023-05-25T10:09:28;102715.00;;;25.62;31.40
64889;BME280;51386;53.082;8.816;2023-05-25T10:11:57;102713.56;;;26.25;30.62
64889;BME280;51386;53.082;8.816;2023-05-25T10:14:27;102717.97;;;27.02;29.01
64889;BME280;51386;53.082;8.816;2023-05-25T10:17:00;102715.59;;;26.82;29.07
64889;BME280;51386;53.082;8.816;2023-05-25T10:19:35;102721.78;;;26.71;28.91
64889;BME280;51386;53.082;8.816;2023-05-25T10:22:14;102712.88;;;27.06;28.65
64889;BME280;51386;53.082;8.816;2023-05-25T10:24:50;102721.47;;;26.91;28.88
64889;BME280;51386;53.082;8.816;2023-05-25T10:27:24;102722.47;;;26.55;28.93
64889;BME280;51386;53.082;8.816;2023-05-25T10:29:56;102728.72;;;26.26;29.34
64889;BME280;51386;53.082;8.816;2023-05-25T10:32:25;102726.19;;;26.13;29.38
64889;BME280;51386;53.082;8.816;2023-05-25T10:34:56;102719.72;;;26.97;28.64
64889;BME280;51386;53.082;8.816;2023-05-25T10:37:25;102722.25;;;28.74;27.29
64889;BME280;51386;53.082;8.816;2023-05-25T10:39:56;102712.81;;;29.15;26.20
64889;BME280;51386;53.082;8.816;2023-05-25T10:42:25;102719.53;;;28.74;26.47
64889;BME280;51386;53.082;8.816;2023-05-25T10:44:54;102716.72;;;28.07;26.44
64889;BME280;51386;53.082;8.816;2023-05-25T10:47:24;102717.59;;;27.45;27.42
64889;BME280;51386;53.082;8.816;2023-05-25T10:49:54;102718.53;;;27.16;27.66
64889;BME280;51386;53.082;8.816;2023-05-25T10:52:26;102715.97;;;26.98;28.61
64889;BME280;51386;53.082;8.816;2023-05-25T10:54:56;102714.53;;;26.83;28.61
64889;BME280;51386;53.082;8.816;2023-05-25T10:57:24;102718.00;;;26.72;28.46
64889;BME280;51386;53.082;8.816;2023-05-25T10:59:53;102715.88;;;26.63;28.70
64889;BME280;51386;53.082;8.816;2023-05-25T11:02:28;102711.66;;;26.55;29.27
64889;BME280;51386;53.082;8.816;2023-05-25T11:05:34;102716.53;;;26.35;28.93
64889;BME280;51386;53.082;8.816;2023-05-25T11:08:03;102707.88;;;26.15;29.30
64889;BME280;51386;53.082;8.816;2023-05-25T11:10:50;102720.75;;;25.83;29.10
64889;BME280;51386;53.082;8.816;2023-05-25T11:13:35;102723.56;;;25.77;30.01
64889;BME280;51386;53.082;8.816;2023-05-25T11:18:54;102721.59;;;25.84;29.27
64889;BME280;51386;53.082;8.816;2023-05-25T11:21:43;102722.66;;;25.65;29.37
64889;BME280;51386;53.082;8.816;2023-05-25T11:24:13;102729.31;;;25.44;29.01
64889;BME280;51386;53.082;8.816;2023-05-25T11:26:58;102715.53;;;25.09;29.06
64889;BME280;51386;53.082;8.816;2023-05-25T11:29:30;102711.91;;;24.97;29.85
64889;BME280;51386;53.082;8.816;2023-05-25T11:31:57;102705.75;;;24.90;30.37
64889;BME280;51386;53.082;8.816;2023-05-25T11:34:29;102714.69;;;24.91;30.66
64889;BME280;51386;53.082;8.816;2023-05-25T11:36:58;102714.69;;;24.91;29.95
64889;BME280;51386;53.082;8.816;2023-05-25T11:39:30;102714.13;;;24.82;30.18
64889;BME280;51386;53.082;8.816;2023-05-25T11:42:03;102710.03;;;24.73;30.93
64889;BME280;51386;53.082;8.816;2023-05-25T11:44:34;102718.41;;;24.65;30.59
64889;BME280;51386;53.082;8.816;2023-05-25T11:47:07;102716.31;;;24.67;31.49
64889;BME280;51386;53.082;8.816;2023-05-25T11:49:38;102708.88;;;24.62;30.62
64889;BME280;51386;53.082;8.816;2023-05-25T11:52:08;102717.22;;;24.54;31.23
64889;BME280;51386;53.082;8.816;2023-05-25T11:54:37;102712.66;;;24.55;31.06
64889;BME280;51386;53.082;8.816;2023-05-25T11:57:18;102709.97;;;24.55;30.99
64889;BME280;51386;53.082;8.816;2023-05-25T11:59:49;102707.88;;;24.57;30.51
64889;BME280;51386;53.082;8.816;2023-05-25T12:02:17;102705.78;;;24.59;31.20
64889;BME280;51386;53.082;8.816;2023-05-25T12:04:54;102697.69;;;24.59;30.91
64889;BME280;51386;53.082;8.816;2023-05-25T12:07:22;102709.97;;;24.55;30.81
64889;BME280;51386;53.082;8.816;2023-05-25T12:09:49;102706.28;;;24.49;31.49
64889;BME280;51386;53.082;8.816;2023-05-25T12:12:18;102712.84;;;24.60;31.17
64889;BME280;51386;53.082;8.816;2023-05-25T12:14:46;102717.94;;;24.68;31.13
64889;BME280;51386;53.082;8.816;2023-05-25T12:17:14;102714.63;;;24.66;31.14
64889;BME280;51386;53.082;8.816;2023-05-25T12:19:42;102714.28;;;24.56;30.42
64889;BME280;51386;53.082;8.816;2023-05-25T12:22:12;102713.84;;;24.34;30.16
64889;BME280;51386;53.082;8.816;2023-05-25T12:24:39;102710.34;;;24.27;30.72
64889;BME280;51386;53.082;8.816;2023-05-25T12:27:16;102717.53;;;24.40;30.68
64889;BME280;51386;53.082;8.816;2023-05-25T12:29:45;102709.38;;;24.53;30.75
64889;BME280;51386;53.082;8.816;2023-05-25T12:32:13;102703.44;;;24.69;30.29
64889;BME280;51386;53.082;8.816;2023-05-25T12:34:40;102702.34;;;25.01;29.97
64889;BME280;51386;53.082;8.816;2023-05-25T12:37:19;102699.97;;;25.29;30.12
64889;BME280;51386;53.082;8.816;2023-05-25T12:39:47;102695.94;;;25.38;30.11
64889;BME280;51386;53.082;8.816;2023-05-25T12:42:15;102699.00;;;25.42;29.88
64889;BME280;51386;53.082;8.816;2023-05-25T12:44:44;102691.97;;;25.41;30.31
64889;BME280;51386;53.082;8.816;2023-05-25T12:47:14;102686.59;;;25.41;30.01
64889;BME280;51386;53.082;8.816;2023-05-25T12:49:43;102681.59;;;25.44;29.68
64889;BME280;51386;53.082;8.816;2023-05-25T12:52:31;102682.63;;;25.43;29.77
64889;BME280;51386;53.082;8.816;2023-05-25T12:55:17;102674.22;;;25.33;30.14
64889;BME280;51386;53.082;8.816;2023-05-25T12:57:45;102684.09;;;25.21;30.81
64889;BME280;51386;53.082;8.816;2023-05-25T13:00:13;102686.75;;;25.03;30.38
64889;BME280;51386;53.082;8.816;2023-05-25T13:02:42;102685.72;;;24.86;31.19
64889;BME280;51386;53.082;8.816;2023-05-25T13:05:17;102684.16;;;24.72;31.17